EmailTwitter


Surface observations / France / LFBO (07630)

Regions: Quebec | Canada | USA | Europe | France | UK | Elsewhere
Station
Display
Info & Location for LFBO (07630) | Help decoding METAR

Weather Conditions observed on 2017/03/25 at 19:30 UTC at TOULOUSE/BLAGNAC, FR (LFBO)

Temperature: 11.0 Celsius.

Dewpoint: 6.0 Celsius.

Relative Humidity: 71%

Windchill Factor: 9.

Winds: East-southeast at 17 km/h or 9 knots.

Mean Sea level Pressure: 101.30 kilopascals.

Coded METAR:

LFBO 251930Z AUTO 11009KT CAVOK 11/06 Q1013 NOSIG=